KCMX

Houghton County Memorial Airport

Hancock, Michigan, USA
METAR KCMX 191453Z AUTO 23006KT 10SM CLR 22/16 A2998 RMK AO2 SLP151 T02220161 50007 $
Observed Flight Rules
Aug-19 @ 14:53 UTC (44 minutes ago) Visual Flight Rules
Wind Visibility Clouds
230° at 6 knots 10 miles
  • Clear skies
Temperatures Readings
Current 22°C / 72°F
Dewpoint 16°C / 61°F
Humidity 69%
Altimeter 29.98" Hg
Pressure 1015.1 hPa
Elevation 326
METAR KCMX 191453Z AUTO 23006KT 10SM CLR 22/16 A2998 RMK AO2 SLP151 T02220161 50007 $
Observed Flight Rules
Aug-19 @ 14:53 UTC
(44 minutes ago)
VFR
Wind Visibility
230° at 6 knots 10 miles
Clouds
  • Clear skies
Temperature Dewpoint
22°C / 72°F 16°C / 61°F
Humidity Altimeter Pressure
69% 29.98" Hg 1015.1 hPa